sensor_id;sensor_type;location;lat;lon;timestamp;pressure;altitude;pressure_sealevel;temperature;humidity
59417;BME280;45222;52.458;20.914;2023-01-30T00:01:51;100389.02;;;-0.26;91.36
59417;BME280;45222;52.458;20.914;2023-01-30T00:05:39;100377.48;;;-0.23;91.41
59417;BME280;45222;52.458;20.914;2023-01-30T00:09:27;100367.86;;;-0.22;91.26
59417;BME280;45222;52.458;20.914;2023-01-30T00:13:15;100360.70;;;-0.22;91.14
59417;BME280;45222;52.458;20.914;2023-01-30T00:17:03;100353.20;;;-0.25;91.19
59417;BME280;45222;52.458;20.914;2023-01-30T00:20:55;100351.98;;;-0.26;91.43
59417;BME280;45222;52.458;20.914;2023-01-30T00:24:43;100338.52;;;-0.24;91.46
59417;BME280;45222;52.458;20.914;2023-01-30T00:28:32;100333.61;;;-0.23;91.36
59417;BME280;45222;52.458;20.914;2023-01-30T00:32:20;100326.11;;;-0.25;91.66
59417;BME280;45222;52.458;20.914;2023-01-30T00:36:10;100320.70;;;-0.28;91.71
59417;BME280;45222;52.458;20.914;2023-01-30T00:39:58;100311.83;;;-0.32;91.91
59417;BME280;45222;52.458;20.914;2023-01-30T00:43:46;100301.15;;;-0.32;92.10
59417;BME280;45222;52.458;20.914;2023-01-30T00:48:00;100288.75;;;-0.31;92.19
59417;BME280;45222;52.458;20.914;2023-01-30T00:51:48;100282.45;;;-0.31;92.17
59417;BME280;45222;52.458;20.914;2023-01-30T00:55:35;100269.55;;;-0.36;92.48
59417;BME280;45222;52.458;20.914;2023-01-30T00:59:23;100256.45;;;-0.37;92.66
59417;BME280;45222;52.458;20.914;2023-01-30T01:03:11;100242.31;;;-0.39;92.68
59417;BME280;45222;52.458;20.914;2023-01-30T01:06:59;100229.57;;;-0.41;92.72
59417;BME280;45222;52.458;20.914;2023-01-30T01:10:46;100218.70;;;-0.37;92.85
59417;BME280;45222;52.458;20.914;2023-01-30T01:14:34;100203.00;;;-0.40;92.87
59417;BME280;45222;52.458;20.914;2023-01-30T01:18:22;100199.34;;;-0.43;92.90
59417;BME280;45222;52.458;20.914;2023-01-30T01:22:10;100189.38;;;-0.40;92.82
59417;BME280;45222;52.458;20.914;2023-01-30T01:26:01;100177.65;;;-0.39;92.67
59417;BME280;45222;52.458;20.914;2023-01-30T01:29:49;100172.73;;;-0.34;92.66
59417;BME280;45222;52.458;20.914;2023-01-30T01:33:37;100166.61;;;-0.33;92.56
59417;BME280;45222;52.458;20.914;2023-01-30T01:37:25;100158.91;;;-0.32;92.54
59417;BME280;45222;52.458;20.914;2023-01-30T01:41:13;100144.55;;;-0.28;92.18
59417;BME280;45222;52.458;20.914;2023-01-30T01:45:09;100134.92;;;-0.28;91.96
59417;BME280;45222;52.458;20.914;2023-01-30T01:49:03;100125.67;;;-0.27;91.91
59417;BME280;45222;52.458;20.914;2023-01-30T01:52:54;100124.42;;;-0.23;91.77
59417;BME280;45222;52.458;20.914;2023-01-30T01:56:44;100120.73;;;-0.19;91.49
59417;BME280;45222;52.458;20.914;2023-01-30T02:00:34;100111.48;;;-0.21;91.31
59417;BME280;45222;52.458;20.914;2023-01-30T02:04:21;100103.08;;;-0.20;91.01
59417;BME280;45222;52.458;20.914;2023-01-30T02:08:28;100107.77;;;-0.16;91.00
59417;BME280;45222;52.458;20.914;2023-01-30T02:12:17;100097.79;;;-0.15;90.73
59417;BME280;45222;52.458;20.914;2023-01-30T02:16:07;100092.34;;;-0.11;90.53
59417;BME280;45222;52.458;20.914;2023-01-30T02:19:56;100093.76;;;-0.14;90.21
59417;BME280;45222;52.458;20.914;2023-01-30T02:24:20;100085.55;;;-0.15;90.16
59417;BME280;45222;52.458;20.914;2023-01-30T02:28:39;100074.14;;;-0.10;89.88
59417;BME280;45222;52.458;20.914;2023-01-30T02:32:35;100063.27;;;-0.07;89.65
59417;BME280;45222;52.458;20.914;2023-01-30T02:36:31;100045.98;;;-0.09;89.55
59417;BME280;45222;52.458;20.914;2023-01-30T02:40:35;100041.95;;;-0.07;89.33
59417;BME280;45222;52.458;20.914;2023-01-30T02:44:29;100035.80;;;-0.04;89.24
59417;BME280;45222;52.458;20.914;2023-01-30T02:48:24;100021.11;;;-0.03;89.22
59417;BME280;45222;52.458;20.914;2023-01-30T02:52:14;100012.69;;;-0.01;88.95
59417;BME280;45222;52.458;20.914;2023-01-30T02:56:02;100004.42;;;0.04;88.46
59417;BME280;45222;52.458;20.914;2023-01-30T02:59:53;99996.52;;;0.07;88.05
59417;BME280;45222;52.458;20.914;2023-01-30T03:03:52;99987.45;;;0.06;88.01
59417;BME280;45222;52.458;20.914;2023-01-30T03:07:53;99972.05;;;0.06;87.90
59417;BME280;45222;52.458;20.914;2023-01-30T03:11:48;99960.15;;;0.08;87.56
59417;BME280;45222;52.458;20.914;2023-01-30T03:15:40;99946.19;;;0.06;87.22
59417;BME280;45222;52.458;20.914;2023-01-30T03:19:30;99940.28;;;0.02;86.98
59417;BME280;45222;52.458;20.914;2023-01-30T03:23:18;99928.98;;;-0.02;86.68
59417;BME280;45222;52.458;20.914;2023-01-30T03:27:09;99921.65;;;-0.04;86.23
59417;BME280;45222;52.458;20.914;2023-01-30T03:30:57;99913.27;;;-0.06;86.49
59417;BME280;45222;52.458;20.914;2023-01-30T03:34:45;99902.77;;;-0.04;86.46
59417;BME280;45222;52.458;20.914;2023-01-30T03:38:34;99892.69;;;-0.08;85.98
59417;BME280;45222;52.458;20.914;2023-01-30T03:42:21;99883.48;;;-0.13;85.94
59417;BME280;45222;52.458;20.914;2023-01-30T03:46:08;99881.95;;;-0.16;85.84
59417;BME280;45222;52.458;20.914;2023-01-30T03:49:56;99876.54;;;-0.17;85.53
59417;BME280;45222;52.458;20.914;2023-01-30T03:53:44;99867.52;;;-0.22;85.37
59417;BME280;45222;52.458;20.914;2023-01-30T03:57:32;99854.77;;;-0.23;85.60
59417;BME280;45222;52.458;20.914;2023-01-30T04:01:20;99854.43;;;-0.24;85.73
59417;BME280;45222;52.458;20.914;2023-01-30T04:05:08;99844.15;;;-0.26;85.63
59417;BME280;45222;52.458;20.914;2023-01-30T04:08:56;99835.58;;;-0.25;85.46
59417;BME280;45222;52.458;20.914;2023-01-30T04:12:43;99820.04;;;-0.27;85.52
59417;BME280;45222;52.458;20.914;2023-01-30T04:16:31;99812.20;;;-0.29;85.60
59417;BME280;45222;52.458;20.914;2023-01-30T04:20:19;99801.06;;;-0.32;85.76
59417;BME280;45222;52.458;20.914;2023-01-30T04:24:08;99791.27;;;-0.31;85.64
59417;BME280;45222;52.458;20.914;2023-01-30T04:27:56;99784.11;;;-0.31;85.54
59417;BME280;45222;52.458;20.914;2023-01-30T04:31:43;99778.22;;;-0.34;85.58
59417;BME280;45222;52.458;20.914;2023-01-30T04:35:31;99768.25;;;-0.34;85.37
59417;BME280;45222;52.458;20.914;2023-01-30T04:39:19;99759.88;;;-0.36;85.49
59417;BME280;45222;52.458;20.914;2023-01-30T04:43:07;99750.30;;;-0.37;85.74
59417;BME280;45222;52.458;20.914;2023-01-30T04:46:55;99749.77;;;-0.37;85.65
59417;BME280;45222;52.458;20.914;2023-01-30T04:50:46;99747.70;;;-0.39;85.73
59417;BME280;45222;52.458;20.914;2023-01-30T04:54:34;99746.88;;;-0.42;85.93
59417;BME280;45222;52.458;20.914;2023-01-30T04:58:21;99738.66;;;-0.42;86.00
59417;BME280;45222;52.458;20.914;2023-01-30T05:02:09;99722.84;;;-0.47;86.13
59417;BME280;45222;52.458;20.914;2023-01-30T05:05:57;99709.18;;;-0.45;86.27
59417;BME280;45222;52.458;20.914;2023-01-30T05:09:45;99705.74;;;-0.49;86.32
59417;BME280;45222;52.458;20.914;2023-01-30T05:13:33;99699.89;;;-0.55;86.45
59417;BME280;45222;52.458;20.914;2023-01-30T05:17:21;99692.06;;;-0.58;86.70
59417;BME280;45222;52.458;20.914;2023-01-30T05:21:11;99689.13;;;-0.60;86.73
59417;BME280;45222;52.458;20.914;2023-01-30T05:24:59;99680.23;;;-0.61;86.76
59417;BME280;45222;52.458;20.914;2023-01-30T05:28:51;99659.84;;;-0.64;86.73
59417;BME280;45222;52.458;20.914;2023-01-30T05:32:39;99662.33;;;-0.67;86.77
59417;BME280;45222;52.458;20.914;2023-01-30T05:36:27;99661.82;;;-0.68;86.88
59417;BME280;45222;52.458;20.914;2023-01-30T05:40:15;99651.19;;;-0.69;86.86
59417;BME280;45222;52.458;20.914;2023-01-30T05:44:03;99642.27;;;-0.68;86.67
59417;BME280;45222;52.458;20.914;2023-01-30T05:47:52;99628.30;;;-0.69;86.62
59417;BME280;45222;52.458;20.914;2023-01-30T05:51:40;99622.88;;;-0.68;86.58
59417;BME280;45222;52.458;20.914;2023-01-30T05:55:28;99617.48;;;-0.69;86.44
59417;BME280;45222;52.458;20.914;2023-01-30T05:59:15;99609.42;;;-0.68;86.31
59417;BME280;45222;52.458;20.914;2023-01-30T06:03:04;99616.38;;;-0.65;86.18
59417;BME280;45222;52.458;20.914;2023-01-30T06:06:51;99614.94;;;-0.62;86.03
59417;BME280;45222;52.458;20.914;2023-01-30T06:10:39;99605.17;;;-0.63;85.81
59417;BME280;45222;52.458;20.914;2023-01-30T06:14:27;99604.90;;;-0.57;85.62
59417;BME280;45222;52.458;20.914;2023-01-30T06:18:15;99598.59;;;-0.57;85.54
59417;BME280;45222;52.458;20.914;2023-01-30T06:22:02;99598.75;;;-0.55;85.22
59417;BME280;45222;52.458;20.914;2023-01-30T06:25:51;99587.90;;;-0.53;85.11
59417;BME280;45222;52.458;20.914;2023-01-30T06:29:39;99573.71;;;-0.49;85.01
59417;BME280;45222;52.458;20.914;2023-01-30T06:33:27;99570.89;;;-0.49;84.84
59417;BME280;45222;52.458;20.914;2023-01-30T06:37:15;99565.84;;;-0.49;84.75
59417;BME280;45222;52.458;20.914;2023-01-30T06:41:02;99562.18;;;-0.50;84.75
59417;BME280;45222;52.458;20.914;2023-01-30T06:44:50;99559.76;;;-0.51;84.79
59417;BME280;45222;52.458;20.914;2023-01-30T06:48:38;99552.56;;;-0.50;84.49
59417;BME280;45222;52.458;20.914;2023-01-30T06:52:26;99558.53;;;-0.51;84.46
59417;BME280;45222;52.458;20.914;2023-01-30T06:56:13;99548.73;;;-0.50;84.49
59417;BME280;45222;52.458;20.914;2023-01-30T07:00:01;99539.34;;;-0.53;84.37
59417;BME280;45222;52.458;20.914;2023-01-30T07:03:49;99527.67;;;-0.55;84.20
59417;BME280;45222;52.458;20.914;2023-01-30T07:07:38;99521.52;;;-0.52;84.21
59417;BME280;45222;52.458;20.914;2023-01-30T07:11:26;99529.54;;;-0.51;84.08
59417;BME280;45222;52.458;20.914;2023-01-30T07:15:14;99524.17;;;-0.55;84.17
59417;BME280;45222;52.458;20.914;2023-01-30T07:19:02;99512.90;;;-0.59;84.49
59417;BME280;45222;52.458;20.914;2023-01-30T07:22:54;99503.92;;;-0.65;84.72
59417;BME280;45222;52.458;20.914;2023-01-30T07:26:42;99488.98;;;-0.70;84.80
59417;BME280;45222;52.458;20.914;2023-01-30T07:30:31;99484.67;;;-0.73;84.88
59417;BME280;45222;52.458;20.914;2023-01-30T07:34:21;99472.71;;;-0.78;85.24
59417;BME280;45222;52.458;20.914;2023-01-30T07:38:09;99466.49;;;-0.83;85.55
59417;BME280;45222;52.458;20.914;2023-01-30T07:41:56;99457.80;;;-0.84;86.01
59417;BME280;45222;52.458;20.914;2023-01-30T07:45:47;99458.59;;;-0.90;86.44
59417;BME280;45222;52.458;20.914;2023-01-30T07:49:35;99456.60;;;-0.97;87.17
59417;BME280;45222;52.458;20.914;2023-01-30T07:53:23;99459.61;;;-1.00;87.59
59417;BME280;45222;52.458;20.914;2023-01-30T07:57:10;99454.60;;;-1.02;87.97
59417;BME280;45222;52.458;20.914;2023-01-30T08:00:58;99456.34;;;-1.03;88.03
59417;BME280;45222;52.458;20.914;2023-01-30T08:04:46;99450.48;;;-1.06;88.18
59417;BME280;45222;52.458;20.914;2023-01-30T08:08:33;99450.82;;;-1.06;88.31
59417;BME280;45222;52.458;20.914;2023-01-30T08:12:21;99434.23;;;-1.05;88.64
59417;BME280;45222;52.458;20.914;2023-01-30T08:16:10;99436.13;;;-1.04;88.42
59417;BME280;45222;52.458;20.914;2023-01-30T08:19:57;99433.99;;;-1.02;88.59
59417;BME280;45222;52.458;20.914;2023-01-30T08:23:45;99428.21;;;-1.00;88.56
59417;BME280;45222;52.458;20.914;2023-01-30T08:27:33;99421.05;;;-1.00;88.60
59417;BME280;45222;52.458;20.914;2023-01-30T08:31:21;99420.38;;;-1.01;88.58
59417;BME280;45222;52.458;20.914;2023-01-30T08:35:10;99417.77;;;-1.02;88.64
59417;BME280;45222;52.458;20.914;2023-01-30T08:38:58;99423.65;;;-1.10;88.85
59417;BME280;45222;52.458;20.914;2023-01-30T08:42:46;99417.01;;;-1.09;89.12
59417;BME280;45222;52.458;20.914;2023-01-30T08:46:34;99406.59;;;-1.12;89.13
59417;BME280;45222;52.458;20.914;2023-01-30T08:50:22;99400.56;;;-1.06;89.15
59417;BME280;45222;52.458;20.914;2023-01-30T08:54:09;99397.77;;;-1.06;89.21
59417;BME280;45222;52.458;20.914;2023-01-30T08:57:57;99389.83;;;-1.01;89.37
59417;BME280;45222;52.458;20.914;2023-01-30T09:01:45;99379.64;;;-0.97;89.32
59417;BME280;45222;52.458;20.914;2023-01-30T09:05:33;99373.36;;;-0.96;89.25
59417;BME280;45222;52.458;20.914;2023-01-30T09:09:21;99363.23;;;-0.97;88.85
59417;BME280;45222;52.458;20.914;2023-01-30T09:13:10;99357.67;;;-0.98;89.01
59417;BME280;45222;52.458;20.914;2023-01-30T09:16:58;99351.61;;;-0.90;88.91
59417;BME280;45222;52.458;20.914;2023-01-30T09:20:45;99346.84;;;-0.88;88.78
59417;BME280;45222;52.458;20.914;2023-01-30T09:24:34;99341.55;;;-0.85;88.43
59417;BME280;45222;52.458;20.914;2023-01-30T09:28:22;99342.05;;;-0.83;88.41
59417;BME280;45222;52.458;20.914;2023-01-30T09:32:10;99341.40;;;-0.86;88.45
59417;BME280;45222;52.458;20.914;2023-01-30T09:35:57;99336.65;;;-0.84;88.50
59417;BME280;45222;52.458;20.914;2023-01-30T09:39:45;99332.37;;;-0.88;88.49
59417;BME280;45222;52.458;20.914;2023-01-30T09:43:43;99316.88;;;-0.91;88.66
59417;BME280;45222;52.458;20.914;2023-01-30T09:47:39;99304.94;;;-0.87;88.67
59417;BME280;45222;52.458;20.914;2023-01-30T09:51:37;99305.32;;;-0.79;88.87
59417;BME280;45222;52.458;20.914;2023-01-30T09:55:28;99303.89;;;-0.78;88.85
59417;BME280;45222;52.458;20.914;2023-01-30T09:59:20;99290.80;;;-0.77;88.79
59417;BME280;45222;52.458;20.914;2023-01-30T10:03:13;99287.44;;;-0.75;88.82
59417;BME280;45222;52.458;20.914;2023-01-30T10:07:12;99276.60;;;-0.75;88.90
59417;BME280;45222;52.458;20.914;2023-01-30T10:11:07;99277.34;;;-0.77;89.05
59417;BME280;45222;52.458;20.914;2023-01-30T10:15:10;99268.77;;;-0.76;89.04
59417;BME280;45222;52.458;20.914;2023-01-30T10:19:34;99260.27;;;-0.78;89.14
59417;BME280;45222;52.458;20.914;2023-01-30T10:23:33;99253.27;;;-0.78;89.29
59417;BME280;45222;52.458;20.914;2023-01-30T10:27:30;99244.70;;;-0.77;89.49
59417;BME280;45222;52.458;20.914;2023-01-30T10:31:25;99234.14;;;-0.73;89.55
59417;BME280;45222;52.458;20.914;2023-01-30T10:35:19;99228.68;;;-0.71;89.66
59417;BME280;45222;52.458;20.914;2023-01-30T10:39:21;99227.98;;;-0.62;89.67
59417;BME280;45222;52.458;20.914;2023-01-30T10:43:18;99222.40;;;-0.62;89.65
59417;BME280;45222;52.458;20.914;2023-01-30T10:47:35;99212.76;;;-0.61;89.65
59417;BME280;45222;52.458;20.914;2023-01-30T10:51:34;99218.39;;;-0.55;89.67
59417;BME280;45222;52.458;20.914;2023-01-30T10:55:31;99219.94;;;-0.54;89.85
59417;BME280;45222;52.458;20.914;2023-01-30T10:59:31;99213.13;;;-0.54;89.90
59417;BME280;45222;52.458;20.914;2023-01-30T11:03:27;99202.08;;;-0.51;89.81
59417;BME280;45222;52.458;20.914;2023-01-30T11:07:19;99187.12;;;-0.47;89.78
59417;BME280;45222;52.458;20.914;2023-01-30T11:15:19;99183.02;;;-0.27;89.69
59417;BME280;45222;52.458;20.914;2023-01-30T11:19:10;99180.86;;;-0.18;89.79
59417;BME280;45222;52.458;20.914;2023-01-30T11:23:07;99172.91;;;-0.06;89.71
59417;BME280;45222;52.458;20.914;2023-01-30T11:26:56;99165.90;;;0.09;89.47
59417;BME280;45222;52.458;20.914;2023-01-30T11:30:57;99159.10;;;0.08;89.05
59417;BME280;45222;52.458;20.914;2023-01-30T11:35:02;99157.21;;;-0.01;89.23
59417;BME280;45222;52.458;20.914;2023-01-30T11:38:57;99158.23;;;-0.07;89.51
59417;BME280;45222;52.458;20.914;2023-01-30T11:42:47;99155.21;;;-0.11;89.68
59417;BME280;45222;52.458;20.914;2023-01-30T11:46:38;99152.98;;;-0.13;89.87
59417;BME280;45222;52.458;20.914;2023-01-30T11:50:32;99150.66;;;-0.11;89.77
59417;BME280;45222;52.458;20.914;2023-01-30T11:54:32;99140.79;;;-0.08;89.84
59417;BME280;45222;52.458;20.914;2023-01-30T11:58:21;99139.49;;;-0.05;90.00
59417;BME280;45222;52.458;20.914;2023-01-30T12:02:17;99130.92;;;0.02;89.98
59417;BME280;45222;52.458;20.914;2023-01-30T12:06:06;99133.84;;;0.05;89.89
59417;BME280;45222;52.458;20.914;2023-01-30T12:09:55;99125.48;;;0.03;90.02
59417;BME280;45222;52.458;20.914;2023-01-30T12:13:44;99125.98;;;0.04;90.22
59417;BME280;45222;52.458;20.914;2023-01-30T12:17:41;99116.29;;;0.08;90.25
59417;BME280;45222;52.458;20.914;2023-01-30T12:21:38;99113.16;;;0.14;90.10
59417;BME280;45222;52.458;20.914;2023-01-30T12:25:34;99111.59;;;0.13;90.02
59417;BME280;45222;52.458;20.914;2023-01-30T12:29:30;99118.46;;;0.11;89.95
59417;BME280;45222;52.458;20.914;2023-01-30T12:33:19;99120.77;;;0.17;89.96
59417;BME280;45222;52.458;20.914;2023-01-30T12:37:23;99121.29;;;0.17;89.94
59417;BME280;45222;52.458;20.914;2023-01-30T12:41:25;99113.02;;;0.19;90.03
59417;BME280;45222;52.458;20.914;2023-01-30T12:45:23;99107.17;;;0.22;89.81
59417;BME280;45222;52.458;20.914;2023-01-30T12:49:29;99108.53;;;0.23;89.98
59417;BME280;45222;52.458;20.914;2023-01-30T12:53:29;99109.45;;;0.28;90.27
59417;BME280;45222;52.458;20.914;2023-01-30T12:57:25;99109.28;;;0.28;90.35
59417;BME280;45222;52.458;20.914;2023-01-30T13:01:22;99109.55;;;0.31;90.28
59417;BME280;45222;52.458;20.914;2023-01-30T13:05:24;99102.66;;;0.34;90.33
59417;BME280;45222;52.458;20.914;2023-01-30T13:09:29;99092.88;;;0.34;90.22
59417;BME280;45222;52.458;20.914;2023-01-30T13:13:27;99089.20;;;0.40;90.33
59417;BME280;45222;52.458;20.914;2023-01-30T13:17:32;99083.45;;;0.39;90.44
59417;BME280;45222;52.458;20.914;2023-01-30T13:21:30;99083.45;;;0.39;90.76
59417;BME280;45222;52.458;20.914;2023-01-30T13:25:29;99081.70;;;0.38;90.91
59417;BME280;45222;52.458;20.914;2023-01-30T13:29:25;99082.01;;;0.41;90.89
59417;BME280;45222;52.458;20.914;2023-01-30T13:33:20;99079.23;;;0.46;91.09
59417;BME280;45222;52.458;20.914;2023-01-30T13:37:11;99078.84;;;0.48;90.89
59417;BME280;45222;52.458;20.914;2023-01-30T13:41:00;99082.60;;;0.45;91.00
59417;BME280;45222;52.458;20.914;2023-01-30T13:44:50;99080.27;;;0.47;90.91
59417;BME280;45222;52.458;20.914;2023-01-30T13:48:48;99072.05;;;0.46;90.94
59417;BME280;45222;52.458;20.914;2023-01-30T13:52:43;99084.21;;;0.49;91.01
59417;BME280;45222;52.458;20.914;2023-01-30T13:56:39;99089.64;;;0.49;91.12
59417;BME280;45222;52.458;20.914;2023-01-30T14:00:33;99095.34;;;0.46;91.30
59417;BME280;45222;52.458;20.914;2023-01-30T14:04:45;99098.48;;;0.46;91.51
59417;BME280;45222;52.458;20.914;2023-01-30T14:08:38;99095.36;;;0.51;91.65
59417;BME280;45222;52.458;20.914;2023-01-30T14:12:30;99096.08;;;0.51;91.59
59417;BME280;45222;52.458;20.914;2023-01-30T14:16:20;99096.79;;;0.57;91.71
59417;BME280;45222;52.458;20.914;2023-01-30T14:20:16;99103.70;;;0.59;91.67
59417;BME280;45222;52.458;20.914;2023-01-30T14:24:16;99106.92;;;0.57;91.57
59417;BME280;45222;52.458;20.914;2023-01-30T14:32:55;99106.63;;;0.68;91.66
59417;BME280;45222;52.458;20.914;2023-01-30T14:36:53;99106.95;;;0.69;91.75
59417;BME280;45222;52.458;20.914;2023-01-30T14:40:42;99112.46;;;0.72;91.44
59417;BME280;45222;52.458;20.914;2023-01-30T14:45:03;99108.01;;;0.69;91.53
59417;BME280;45222;52.458;20.914;2023-01-30T14:48:54;99106.26;;;0.74;91.47
59417;BME280;45222;52.458;20.914;2023-01-30T14:52:47;99099.08;;;0.75;91.64
59417;BME280;45222;52.458;20.914;2023-01-30T14:56:43;99095.10;;;0.79;91.51
59417;BME280;45222;52.458;20.914;2023-01-30T15:00:33;99091.48;;;0.77;91.33
59417;BME280;45222;52.458;20.914;2023-01-30T15:04:25;99092.77;;;0.81;91.30
59417;BME280;45222;52.458;20.914;2023-01-30T15:08:15;99090.36;;;0.85;91.28
59417;BME280;45222;52.458;20.914;2023-01-30T15:12:19;99094.34;;;0.87;91.26
59417;BME280;45222;52.458;20.914;2023-01-30T15:16:31;99098.88;;;0.87;91.27
59417;BME280;45222;52.458;20.914;2023-01-30T15:20:35;99109.57;;;0.87;91.29
59417;BME280;45222;52.458;20.914;2023-01-30T15:24:59;99110.14;;;0.85;91.14
59417;BME280;45222;52.458;20.914;2023-01-30T15:28:54;99113.83;;;0.85;91.27
59417;BME280;45222;52.458;20.914;2023-01-30T15:32:45;99117.58;;;0.89;91.31
59417;BME280;45222;52.458;20.914;2023-01-30T15:36:34;99117.30;;;0.92;91.36
59417;BME280;45222;52.458;20.914;2023-01-30T15:40:27;99120.17;;;0.96;91.15
59417;BME280;45222;52.458;20.914;2023-01-30T15:44:41;99125.79;;;0.95;91.15
59417;BME280;45222;52.458;20.914;2023-01-30T15:48:51;99137.48;;;0.90;91.22
59417;BME280;45222;52.458;20.914;2023-01-30T15:52:46;99138.13;;;0.92;91.19
59417;BME280;45222;52.458;20.914;2023-01-30T15:56:35;99141.84;;;0.91;91.31
59417;BME280;45222;52.458;20.914;2023-01-30T16:00:28;99152.05;;;0.96;91.27
59417;BME280;45222;52.458;20.914;2023-01-30T16:04:27;99151.67;;;0.96;91.10
59417;BME280;45222;52.458;20.914;2023-01-30T16:08:21;99147.14;;;0.96;91.00
59417;BME280;45222;52.458;20.914;2023-01-30T16:12:23;99145.00;;;0.97;90.80
59417;BME280;45222;52.458;20.914;2023-01-30T16:16:14;99134.96;;;0.99;91.06
59417;BME280;45222;52.458;20.914;2023-01-30T16:20:10;99129.59;;;0.97;91.24
59417;BME280;45222;52.458;20.914;2023-01-30T16:24:02;99127.55;;;1.00;91.08
59417;BME280;45222;52.458;20.914;2023-01-30T16:27:51;99133.89;;;0.99;91.06
59417;BME280;45222;52.458;20.914;2023-01-30T16:31:39;99139.92;;;0.97;90.90
59417;BME280;45222;52.458;20.914;2023-01-30T16:35:30;99147.46;;;0.97;90.88
59417;BME280;45222;52.458;20.914;2023-01-30T16:39:31;99156.88;;;0.98;90.95
59417;BME280;45222;52.458;20.914;2023-01-30T16:43:22;99159.01;;;0.97;90.96
59417;BME280;45222;52.458;20.914;2023-01-30T16:47:23;99163.08;;;1.01;91.06
59417;BME280;45222;52.458;20.914;2023-01-30T16:51:17;99158.08;;;0.99;91.14
59417;BME280;45222;52.458;20.914;2023-01-30T16:55:17;99162.95;;;0.99;90.94
59417;BME280;45222;52.458;20.914;2023-01-30T16:59:11;99168.09;;;0.98;91.05
59417;BME280;45222;52.458;20.914;2023-01-30T17:03:06;99165.54;;;1.01;90.91
59417;BME280;45222;52.458;20.914;2023-01-30T17:06:56;99166.99;;;0.99;90.98
59417;BME280;45222;52.458;20.914;2023-01-30T17:10:54;99171.23;;;0.97;90.80
59417;BME280;45222;52.458;20.914;2023-01-30T17:14:42;99169.48;;;0.97;90.86
59417;BME280;45222;52.458;20.914;2023-01-30T17:18:30;99168.42;;;0.98;90.81
59417;BME280;45222;52.458;20.914;2023-01-30T17:22:17;99170.51;;;0.98;90.96
59417;BME280;45222;52.458;20.914;2023-01-30T17:26:12;99176.58;;;0.95;91.03
59417;BME280;45222;52.458;20.914;2023-01-30T17:30:01;99179.98;;;0.91;91.04
59417;BME280;45222;52.458;20.914;2023-01-30T17:33:49;99178.63;;;0.90;91.20
59417;BME280;45222;52.458;20.914;2023-01-30T17:37:37;99180.52;;;0.91;91.41
59417;BME280;45222;52.458;20.914;2023-01-30T17:41:27;99178.93;;;0.98;91.52
59417;BME280;45222;52.458;20.914;2023-01-30T17:45:15;99180.23;;;1.02;91.50
59417;BME280;45222;52.458;20.914;2023-01-30T17:49:03;99175.15;;;1.01;91.43
59417;BME280;45222;52.458;20.914;2023-01-30T17:52:51;99166.10;;;1.00;91.53
59417;BME280;45222;52.458;20.914;2023-01-30T17:56:41;99171.71;;;0.99;91.51
59417;BME280;45222;52.458;20.914;2023-01-30T18:00:29;99171.83;;;1.01;91.53
59417;BME280;45222;52.458;20.914;2023-01-30T18:04:17;99169.48;;;1.03;91.43
59417;BME280;45222;52.458;20.914;2023-01-30T18:08:06;99173.73;;;1.02;91.43
59417;BME280;45222;52.458;20.914;2023-01-30T18:11:54;99183.10;;;0.99;91.75
59417;BME280;45222;52.458;20.914;2023-01-30T18:15:42;99184.86;;;0.99;91.65
59417;BME280;45222;52.458;20.914;2023-01-30T18:19:30;99186.09;;;0.99;91.82
59417;BME280;45222;52.458;20.914;2023-01-30T18:23:18;99185.20;;;0.99;91.73
59417;BME280;45222;52.458;20.914;2023-01-30T18:27:06;99185.98;;;0.96;91.65
59417;BME280;45222;52.458;20.914;2023-01-30T18:30:54;99189.50;;;0.95;91.62
59417;BME280;45222;52.458;20.914;2023-01-30T18:34:41;99192.40;;;0.91;91.73
59417;BME280;45222;52.458;20.914;2023-01-30T18:38:29;99194.33;;;0.92;91.80
59417;BME280;45222;52.458;20.914;2023-01-30T18:42:17;99196.04;;;0.93;91.85
59417;BME280;45222;52.458;20.914;2023-01-30T18:46:07;99191.95;;;0.96;91.67
59417;BME280;45222;52.458;20.914;2023-01-30T18:49:55;99186.46;;;0.92;91.65
59417;BME280;45222;52.458;20.914;2023-01-30T18:53:44;99186.79;;;0.92;91.59
59417;BME280;45222;52.458;20.914;2023-01-30T18:57:33;99190.50;;;0.91;91.64
59417;BME280;45222;52.458;20.914;2023-01-30T19:01:22;99201.82;;;0.93;91.56
59417;BME280;45222;52.458;20.914;2023-01-30T19:05:11;99197.54;;;0.96;91.82
59417;BME280;45222;52.458;20.914;2023-01-30T19:08:58;99197.23;;;0.95;91.67
59417;BME280;45222;52.458;20.914;2023-01-30T19:12:46;99199.27;;;0.97;91.65
59417;BME280;45222;52.458;20.914;2023-01-30T19:16:52;99203.17;;;0.95;91.65
59417;BME280;45222;52.458;20.914;2023-01-30T19:20:40;99213.46;;;0.96;91.62
59417;BME280;45222;52.458;20.914;2023-01-30T19:24:28;99221.19;;;1.02;91.80
59417;BME280;45222;52.458;20.914;2023-01-30T19:28:16;99224.27;;;1.05;91.79
59417;BME280;45222;52.458;20.914;2023-01-30T19:32:04;99220.54;;;1.13;91.80
59417;BME280;45222;52.458;20.914;2023-01-30T19:35:52;99217.04;;;1.12;91.75
59417;BME280;45222;52.458;20.914;2023-01-30T19:39:40;99222.77;;;1.14;91.66
59417;BME280;45222;52.458;20.914;2023-01-30T19:43:28;99225.77;;;1.13;91.70
59417;BME280;45222;52.458;20.914;2023-01-30T19:47:16;99226.19;;;1.17;91.79
59417;BME280;45222;52.458;20.914;2023-01-30T19:51:12;99227.09;;;1.16;91.93
59417;BME280;45222;52.458;20.914;2023-01-30T19:55:00;99225.42;;;1.19;91.86
59417;BME280;45222;52.458;20.914;2023-01-30T19:58:49;99221.38;;;1.20;91.83
59417;BME280;45222;52.458;20.914;2023-01-30T20:02:37;99222.84;;;1.18;91.87
59417;BME280;45222;52.458;20.914;2023-01-30T20:06:27;99217.03;;;1.18;91.93
59417;BME280;45222;52.458;20.914;2023-01-30T20:10:16;99207.55;;;1.20;92.14
59417;BME280;45222;52.458;20.914;2023-01-30T20:14:05;99220.71;;;1.19;92.07
59417;BME280;45222;52.458;20.914;2023-01-30T20:17:54;99225.36;;;1.22;92.31
59417;BME280;45222;52.458;20.914;2023-01-30T20:21:42;99238.31;;;1.22;92.16
59417;BME280;45222;52.458;20.914;2023-01-30T20:25:30;99239.65;;;1.18;92.04